sensor_id;sensor_type;location;lat;lon;timestamp;pressure;altitude;pressure_sealevel;temperature;humidity
34925;BME280;21130;51.728;8.748;2023-02-08T00:00:58;102791.50;;;-4.31;100.00
34925;BME280;21130;51.728;8.748;2023-02-08T00:03:24;102783.66;;;-4.36;100.00
34925;BME280;21130;51.728;8.748;2023-02-08T00:05:51;102784.44;;;-4.33;100.00
34925;BME280;21130;51.728;8.748;2023-02-08T00:08:19;102785.38;;;-4.35;100.00
34925;BME280;21130;51.728;8.748;2023-02-08T00:10:46;102783.53;;;-4.34;100.00
34925;BME280;21130;51.728;8.748;2023-02-08T00:13:13;102783.72;;;-4.37;100.00
34925;BME280;21130;51.728;8.748;2023-02-08T00:15:40;102790.53;;;-4.30;100.00
34925;BME280;21130;51.728;8.748;2023-02-08T00:18:06;102783.66;;;-4.36;100.00
34925;BME280;21130;51.728;8.748;2023-02-08T00:20:33;102781.34;;;-4.27;100.00
34925;BME280;21130;51.728;8.748;2023-02-08T00:22:59;102782.94;;;-4.39;100.00
34925;BME280;21130;51.728;8.748;2023-02-08T00:25:27;102772.66;;;-4.48;100.00
34925;BME280;21130;51.728;8.748;2023-02-08T00:27:54;102767.41;;;-4.51;100.00
34925;BME280;21130;51.728;8.748;2023-02-08T00:30:20;102778.34;;;-4.53;100.00
34925;BME280;21130;51.728;8.748;2023-02-08T00:32:46;102781.41;;;-4.59;100.00
34925;BME280;21130;51.728;8.748;2023-02-08T00:35:13;102772.88;;;-4.67;100.00
34925;BME280;21130;51.728;8.748;2023-02-08T00:37:39;102773.91;;;-4.70;100.00
34925;BME280;21130;51.728;8.748;2023-02-08T00:40:07;102761.69;;;-4.77;100.00
34925;BME280;21130;51.728;8.748;2023-02-08T00:42:35;102751.31;;;-4.69;100.00
34925;BME280;21130;51.728;8.748;2023-02-08T00:45:01;102756.16;;;-4.60;100.00
34925;BME280;21130;51.728;8.748;2023-02-08T00:47:28;102760.03;;;-4.64;100.00
34925;BME280;21130;51.728;8.748;2023-02-08T00:49:55;102744.06;;;-4.54;100.00
34925;BME280;21130;51.728;8.748;2023-02-08T00:52:21;102750.19;;;-4.50;100.00
34925;BME280;21130;51.728;8.748;2023-02-08T00:54:48;102749.06;;;-4.46;100.00
34925;BME280;21130;51.728;8.748;2023-02-08T00:57:14;102748.88;;;-4.43;100.00
34925;BME280;21130;51.728;8.748;2023-02-08T00:59:42;102745.28;;;-4.44;100.00
34925;BME280;21130;51.728;8.748;2023-02-08T01:02:10;102740.34;;;-4.37;100.00
34925;BME280;21130;51.728;8.748;2023-02-08T01:04:37;102740.88;;;-4.30;100.00
34925;BME280;21130;51.728;8.748;2023-02-08T01:07:04;102737.63;;;-4.37;100.00
34925;BME280;21130;51.728;8.748;2023-02-08T01:09:31;102736.09;;;-4.41;100.00
34925;BME280;21130;51.728;8.748;2023-02-08T01:11:58;102735.03;;;-4.39;100.00
34925;BME280;21130;51.728;8.748;2023-02-08T01:14:24;102732.41;;;-4.40;100.00
34925;BME280;21130;51.728;8.748;2023-02-08T01:16:52;102731.75;;;-4.44;100.00
34925;BME280;21130;51.728;8.748;2023-02-08T01:19:19;102729.03;;;-4.44;100.00
34925;BME280;21130;51.728;8.748;2023-02-08T01:21:45;102737.50;;;-4.50;100.00
34925;BME280;21130;51.728;8.748;2023-02-08T01:24:15;102737.44;;;-4.48;100.00
34925;BME280;21130;51.728;8.748;2023-02-08T01:26:42;102735.78;;;-4.51;100.00
34925;BME280;21130;51.728;8.748;2023-02-08T01:29:08;102730.97;;;-4.46;100.00
34925;BME280;21130;51.728;8.748;2023-02-08T01:31:36;102733.69;;;-4.62;100.00
34925;BME280;21130;51.728;8.748;2023-02-08T01:34:05;102731.63;;;-4.72;100.00
34925;BME280;21130;51.728;8.748;2023-02-08T01:36:33;102723.94;;;-4.80;100.00
34925;BME280;21130;51.728;8.748;2023-02-08T01:39:01;102731.41;;;-4.84;100.00
34925;BME280;21130;51.728;8.748;2023-02-08T01:41:29;102726.44;;;-4.91;100.00
34925;BME280;21130;51.728;8.748;2023-02-08T01:43:59;102718.91;;;-5.02;100.00
34925;BME280;21130;51.728;8.748;2023-02-08T01:46:26;102725.75;;;-5.11;100.00
34925;BME280;21130;51.728;8.748;2023-02-08T01:48:53;102731.50;;;-5.17;100.00
34925;BME280;21130;51.728;8.748;2023-02-08T01:51:24;102732.72;;;-5.23;100.00
34925;BME280;21130;51.728;8.748;2023-02-08T01:53:54;102735.88;;;-5.30;100.00
34925;BME280;21130;51.728;8.748;2023-02-08T01:56:25;102737.78;;;-5.32;100.00
34925;BME280;21130;51.728;8.748;2023-02-08T01:58:55;102739.38;;;-5.28;100.00
34925;BME280;21130;51.728;8.748;2023-02-08T02:01:24;102740.94;;;-5.24;100.00
34925;BME280;21130;51.728;8.748;2023-02-08T02:03:52;102740.94;;;-5.24;100.00
34925;BME280;21130;51.728;8.748;2023-02-08T02:06:21;102744.34;;;-5.21;100.00
34925;BME280;21130;51.728;8.748;2023-02-08T02:08:56;102743.03;;;-5.13;100.00
34925;BME280;21130;51.728;8.748;2023-02-08T02:11:27;102746.78;;;-5.16;100.00
34925;BME280;21130;51.728;8.748;2023-02-08T02:20:14;102749.69;;;-5.19;100.00
34925;BME280;21130;51.728;8.748;2023-02-08T02:23:28;102753.75;;;-5.12;100.00
34925;BME280;21130;51.728;8.748;2023-02-08T02:26:23;102751.78;;;-5.08;100.00
34925;BME280;21130;51.728;8.748;2023-02-08T02:29:21;102753.78;;;-4.96;100.00
34925;BME280;21130;51.728;8.748;2023-02-08T02:32:08;102747.47;;;-4.81;100.00
34925;BME280;21130;51.728;8.748;2023-02-08T02:34:40;102740.03;;;-4.77;100.00
34925;BME280;21130;51.728;8.748;2023-02-08T02:37:17;102746.69;;;-4.83;100.00
34925;BME280;21130;51.728;8.748;2023-02-08T02:39:53;102752.28;;;-4.86;100.00
34925;BME280;21130;51.728;8.748;2023-02-08T02:42:28;102748.09;;;-4.91;100.00
34925;BME280;21130;51.728;8.748;2023-02-08T02:45:22;102752.72;;;-4.93;100.00
34925;BME280;21130;51.728;8.748;2023-02-08T02:47:57;102749.66;;;-5.03;100.00
34925;BME280;21130;51.728;8.748;2023-02-08T02:50:29;102751.50;;;-5.04;100.00
34925;BME280;21130;51.728;8.748;2023-02-08T02:53:04;102746.53;;;-5.11;100.00
34925;BME280;21130;51.728;8.748;2023-02-08T02:55:35;102745.75;;;-5.13;100.00
34925;BME280;21130;51.728;8.748;2023-02-08T02:58:07;102734.66;;;-5.09;100.00
34925;BME280;21130;51.728;8.748;2023-02-08T03:00:35;102736.81;;;-5.00;100.00
34925;BME280;21130;51.728;8.748;2023-02-08T03:03:04;102737.38;;;-5.09;100.00
34925;BME280;21130;51.728;8.748;2023-02-08T03:05:32;102729.06;;;-5.06;100.00
34925;BME280;21130;51.728;8.748;2023-02-08T03:08:09;102720.13;;;-4.92;100.00
34925;BME280;21130;51.728;8.748;2023-02-08T03:10:53;102720.31;;;-4.95;100.00
34925;BME280;21130;51.728;8.748;2023-02-08T03:13:31;102717.41;;;-4.92;100.00
34925;BME280;21130;51.728;8.748;2023-02-08T03:16:15;102719.84;;;-4.87;100.00
34925;BME280;21130;51.728;8.748;2023-02-08T03:18:55;102719.66;;;-4.84;100.00
34925;BME280;21130;51.728;8.748;2023-02-08T03:21:32;102720.59;;;-4.69;100.00
34925;BME280;21130;51.728;8.748;2023-02-08T03:24:08;102717.22;;;-4.73;100.00
34925;BME280;21130;51.728;8.748;2023-02-08T03:26:49;102705.84;;;-4.49;100.00
34925;BME280;21130;51.728;8.748;2023-02-08T03:29:24;102711.53;;;-4.54;100.00
34925;BME280;21130;51.728;8.748;2023-02-08T03:31:55;102710.22;;;-4.47;100.00
34925;BME280;21130;51.728;8.748;2023-02-08T03:34:28;102706.19;;;-4.40;100.00
34925;BME280;21130;51.728;8.748;2023-02-08T03:36:59;102711.13;;;-4.32;100.00
34925;BME280;21130;51.728;8.748;2023-02-08T03:39:29;102700.88;;;-4.27;100.00
34925;BME280;21130;51.728;8.748;2023-02-08T03:42:00;102699.50;;;-4.34;100.00
34925;BME280;21130;51.728;8.748;2023-02-08T03:44:31;102692.44;;;-4.37;100.00
34925;BME280;21130;51.728;8.748;2023-02-08T03:47:02;102695.34;;;-4.40;100.00
34925;BME280;21130;51.728;8.748;2023-02-08T03:49:34;102694.84;;;-4.46;100.00
34925;BME280;21130;51.728;8.748;2023-02-08T03:52:05;102695.53;;;-4.43;100.00
34925;BME280;21130;51.728;8.748;2023-02-08T03:54:35;102697.09;;;-4.39;100.00
34925;BME280;21130;51.728;8.748;2023-02-08T03:57:07;102694.66;;;-4.43;100.00
34925;BME280;21130;51.728;8.748;2023-02-08T03:59:39;102696.78;;;-4.48;100.00
34925;BME280;21130;51.728;8.748;2023-02-08T04:02:08;102696.28;;;-4.55;100.00
34925;BME280;21130;51.728;8.748;2023-02-08T04:04:40;102702.75;;;-4.58;100.00
34925;BME280;21130;51.728;8.748;2023-02-08T04:07:08;102696.06;;;-4.66;100.00
34925;BME280;21130;51.728;8.748;2023-02-08T04:09:34;102692.91;;;-4.74;100.00
34925;BME280;21130;51.728;8.748;2023-02-08T04:12:01;102687.88;;;-4.81;100.00
34925;BME280;21130;51.728;8.748;2023-02-08T04:14:27;102687.59;;;-4.76;100.00
34925;BME280;21130;51.728;8.748;2023-02-08T04:16:54;102691.44;;;-4.80;100.00
34925;BME280;21130;51.728;8.748;2023-02-08T04:19:21;102695.81;;;-4.78;100.00
34925;BME280;21130;51.728;8.748;2023-02-08T04:21:48;102691.53;;;-4.82;100.00
34925;BME280;21130;51.728;8.748;2023-02-08T04:24:15;102691.81;;;-4.86;100.00
34925;BME280;21130;51.728;8.748;2023-02-08T04:26:41;102695.66;;;-4.90;100.00
34925;BME280;21130;51.728;8.748;2023-02-08T04:29:08;102693.75;;;-4.88;100.00
34925;BME280;21130;51.728;8.748;2023-02-08T04:31:35;102698.56;;;-4.93;100.00
34925;BME280;21130;51.728;8.748;2023-02-08T04:34:01;102699.34;;;-4.91;100.00
34925;BME280;21130;51.728;8.748;2023-02-08T04:36:28;102691.22;;;-4.91;100.00
34925;BME280;21130;51.728;8.748;2023-02-08T04:38:56;102692.59;;;-4.84;100.00
34925;BME280;21130;51.728;8.748;2023-02-08T04:41:22;102698.00;;;-4.84;100.00
34925;BME280;21130;51.728;8.748;2023-02-08T04:44:05;102692.13;;;-4.77;100.00
34925;BME280;21130;51.728;8.748;2023-02-08T04:46:34;102695.88;;;-4.79;100.00
34925;BME280;21130;51.728;8.748;2023-02-08T04:49:01;102697.00;;;-4.67;100.00
34925;BME280;21130;51.728;8.748;2023-02-08T04:51:40;102694.22;;;-4.66;100.00
34925;BME280;21130;51.728;8.748;2023-02-08T04:54:08;102694.63;;;-4.58;100.00
34925;BME280;21130;51.728;8.748;2023-02-08T04:56:35;102705.00;;;-4.50;100.00
34925;BME280;21130;51.728;8.748;2023-02-08T04:59:02;102703.56;;;-4.41;100.00
34925;BME280;21130;51.728;8.748;2023-02-08T05:01:29;102708.03;;;-4.40;100.00
34925;BME280;21130;51.728;8.748;2023-02-08T05:03:55;102705.69;;;-4.32;100.00
34925;BME280;21130;51.728;8.748;2023-02-08T05:06:22;102706.28;;;-4.27;100.00
34925;BME280;21130;51.728;8.748;2023-02-08T05:08:48;102697.22;;;-4.26;100.00
34925;BME280;21130;51.728;8.748;2023-02-08T05:11:35;102703.59;;;-4.13;100.00
34925;BME280;21130;51.728;8.748;2023-02-08T05:14:02;102700.13;;;-4.15;100.00
34925;BME280;21130;51.728;8.748;2023-02-08T05:16:29;102701.41;;;-4.06;100.00
34925;BME280;21130;51.728;8.748;2023-02-08T05:18:56;102712.72;;;-4.14;100.00
34925;BME280;21130;51.728;8.748;2023-02-08T05:21:23;102712.13;;;-4.04;100.00
34925;BME280;21130;51.728;8.748;2023-02-08T05:23:50;102707.56;;;-4.04;100.00
34925;BME280;21130;51.728;8.748;2023-02-08T05:26:17;102725.69;;;-4.04;100.00
34925;BME280;21130;51.728;8.748;2023-02-08T05:28:45;102718.81;;;-4.10;100.00
34925;BME280;21130;51.728;8.748;2023-02-08T05:31:14;102712.13;;;-4.04;100.00
34925;BME280;21130;51.728;8.748;2023-02-08T05:33:41;102722.50;;;-4.11;100.00
34925;BME280;21130;51.728;8.748;2023-02-08T05:36:09;102715.31;;;-4.12;100.00
34925;BME280;21130;51.728;8.748;2023-02-08T05:38:35;102717.38;;;-4.16;100.00
34925;BME280;21130;51.728;8.748;2023-02-08T05:41:02;102711.53;;;-4.09;100.00
34925;BME280;21130;51.728;8.748;2023-02-08T05:43:28;102719.09;;;-4.15;100.00
34925;BME280;21130;51.728;8.748;2023-02-08T05:45:56;102724.91;;;-4.21;100.00
34925;BME280;21130;51.728;8.748;2023-02-08T05:48:23;102734.00;;;-4.22;100.00
34925;BME280;21130;51.728;8.748;2023-02-08T05:50:49;102725.28;;;-4.27;100.00
34925;BME280;21130;51.728;8.748;2023-02-08T05:53:16;102730.28;;;-4.35;100.00
34925;BME280;21130;51.728;8.748;2023-02-08T05:55:43;102733.41;;;-4.27;100.00
34925;BME280;21130;51.728;8.748;2023-02-08T05:58:10;102729.47;;;-4.21;100.00
34925;BME280;21130;51.728;8.748;2023-02-08T06:00:37;102725.53;;;-4.31;100.00
34925;BME280;21130;51.728;8.748;2023-02-08T06:03:05;102721.28;;;-4.36;100.00
34925;BME280;21130;51.728;8.748;2023-02-08T06:05:32;102723.31;;;-4.39;100.00
34925;BME280;21130;51.728;8.748;2023-02-08T06:07:58;102719.06;;;-4.43;100.00
34925;BME280;21130;51.728;8.748;2023-02-08T06:10:25;102722.34;;;-4.38;100.00
34925;BME280;21130;51.728;8.748;2023-02-08T06:12:52;102731.03;;;-4.47;100.00
34925;BME280;21130;51.728;8.748;2023-02-08T06:15:18;102725.41;;;-4.44;100.00
34925;BME280;21130;51.728;8.748;2023-02-08T06:17:45;102729.91;;;-4.43;100.00
34925;BME280;21130;51.728;8.748;2023-02-08T06:20:13;102737.25;;;-4.45;100.00
34925;BME280;21130;51.728;8.748;2023-02-08T06:22:39;102740.75;;;-4.43;100.00
34925;BME280;21130;51.728;8.748;2023-02-08T06:25:06;102745.00;;;-4.39;100.00
34925;BME280;21130;51.728;8.748;2023-02-08T06:27:33;102742.84;;;-4.48;100.00
34925;BME280;21130;51.728;8.748;2023-02-08T06:30:00;102741.69;;;-4.44;100.00
34925;BME280;21130;51.728;8.748;2023-02-08T06:32:26;102740.16;;;-4.34;100.00
34925;BME280;21130;51.728;8.748;2023-02-08T06:34:53;102739.03;;;-4.30;100.00
34925;BME280;21130;51.728;8.748;2023-02-08T06:37:21;102732.00;;;-4.18;100.00
34925;BME280;21130;51.728;8.748;2023-02-08T06:39:48;102730.72;;;-4.13;100.00
34925;BME280;21130;51.728;8.748;2023-02-08T06:42:14;102730.16;;;-4.03;100.00
34925;BME280;21130;51.728;8.748;2023-02-08T06:44:47;102725.34;;;-3.98;100.00
34925;BME280;21130;51.728;8.748;2023-02-08T06:47:14;102725.81;;;-4.06;100.00
34925;BME280;21130;51.728;8.748;2023-02-08T06:49:41;102725.34;;;-3.98;100.00
34925;BME280;21130;51.728;8.748;2023-02-08T06:52:07;102727.75;;;-4.08;100.00
34925;BME280;21130;51.728;8.748;2023-02-08T06:54:35;102734.03;;;-4.07;100.00
34925;BME280;21130;51.728;8.748;2023-02-08T06:57:02;102732.66;;;-4.15;100.00
34925;BME280;21130;51.728;8.748;2023-02-08T06:59:28;102731.19;;;-4.20;100.00
34925;BME280;21130;51.728;8.748;2023-02-08T07:01:55;102733.25;;;-4.24;100.00
34925;BME280;21130;51.728;8.748;2023-02-08T07:04:21;102740.47;;;-4.24;100.00
34925;BME280;21130;51.728;8.748;2023-02-08T07:06:48;102729.50;;;-4.37;100.00
34925;BME280;21130;51.728;8.748;2023-02-08T07:09:14;102731.63;;;-4.42;100.00
34925;BME280;21130;51.728;8.748;2023-02-08T07:11:42;102732.00;;;-4.48;100.00
34925;BME280;21130;51.728;8.748;2023-02-08T07:14:10;102729.66;;;-4.54;100.00
34925;BME280;21130;51.728;8.748;2023-02-08T07:16:37;102724.66;;;-4.46;100.00
34925;BME280;21130;51.728;8.748;2023-02-08T07:19:03;102725.41;;;-4.44;100.00
34925;BME280;21130;51.728;8.748;2023-02-08T07:21:30;102730.84;;;-4.44;100.00
34925;BME280;21130;51.728;8.748;2023-02-08T07:23:56;102721.38;;;-4.37;100.00
34925;BME280;21130;51.728;8.748;2023-02-08T07:26:23;102719.97;;;-4.28;100.00
34925;BME280;21130;51.728;8.748;2023-02-08T07:28:54;102713.97;;;-4.19;100.00
34925;BME280;21130;51.728;8.748;2023-02-08T07:31:21;102711.84;;;-4.14;100.00
34925;BME280;21130;51.728;8.748;2023-02-08T07:33:47;102707.19;;;-4.12;100.00
34925;BME280;21130;51.728;8.748;2023-02-08T07:36:14;102705.06;;;-4.07;100.00
34925;BME280;21130;51.728;8.748;2023-02-08T07:38:41;102703.06;;;-4.03;100.00
34925;BME280;21130;51.728;8.748;2023-02-08T07:41:09;102709.63;;;-3.93;100.00
34925;BME280;21130;51.728;8.748;2023-02-08T07:43:37;102711.16;;;-3.89;100.00
34925;BME280;21130;51.728;8.748;2023-02-08T07:46:07;102703.53;;;-3.82;100.00
34925;BME280;21130;51.728;8.748;2023-02-08T07:48:34;102699.47;;;-3.75;100.00
34925;BME280;21130;51.728;8.748;2023-02-08T07:51:00;102699.75;;;-3.65;100.00
34925;BME280;21130;51.728;8.748;2023-02-08T07:53:27;102701.19;;;-3.60;100.00
34925;BME280;21130;51.728;8.748;2023-02-08T07:55:54;102703.97;;;-3.47;100.00
34925;BME280;21130;51.728;8.748;2023-02-08T07:58:21;102703.97;;;-3.33;100.00
34925;BME280;21130;51.728;8.748;2023-02-08T08:00:47;102704.41;;;-3.26;100.00
34925;BME280;21130;51.728;8.748;2023-02-08T08:03:15;102703.25;;;-3.22;100.00
34925;BME280;21130;51.728;8.748;2023-02-08T08:05:42;102701.00;;;-3.15;100.00
34925;BME280;21130;51.728;8.748;2023-02-08T08:08:09;102704.09;;;-3.07;100.00
34925;BME280;21130;51.728;8.748;2023-02-08T08:10:36;102704.81;;;-2.91;100.00
34925;BME280;21130;51.728;8.748;2023-02-08T08:13:03;102705.94;;;-2.80;100.00
34925;BME280;21130;51.728;8.748;2023-02-08T08:15:30;102694.34;;;-2.70;100.00
34925;BME280;21130;51.728;8.748;2023-02-08T08:17:57;102700.66;;;-2.56;100.00
34925;BME280;21130;51.728;8.748;2023-02-08T08:20:25;102698.53;;;-2.26;100.00
34925;BME280;21130;51.728;8.748;2023-02-08T08:22:51;102691.34;;;-1.88;100.00
34925;BME280;21130;51.728;8.748;2023-02-08T08:25:18;102694.84;;;-1.24;100.00
34925;BME280;21130;51.728;8.748;2023-02-08T08:27:44;102694.25;;;-0.68;100.00
34925;BME280;21130;51.728;8.748;2023-02-08T08:30:14;102689.84;;;-0.23;100.00
34925;BME280;21130;51.728;8.748;2023-02-08T08:32:40;102685.44;;;0.33;100.00
34925;BME280;21130;51.728;8.748;2023-02-08T08:35:08;102673.59;;;0.66;100.00
34925;BME280;21130;51.728;8.748;2023-02-08T08:37:36;102676.44;;;1.19;100.00
34925;BME280;21130;51.728;8.748;2023-02-08T08:40:04;102675.91;;;1.79;90.23
34925;BME280;21130;51.728;8.748;2023-02-08T08:42:31;102668.56;;;2.41;85.85
34925;BME280;21130;51.728;8.748;2023-02-08T08:44:58;102668.44;;;2.83;74.29
34925;BME280;21130;51.728;8.748;2023-02-08T08:47:24;102671.38;;;3.39;68.93
34925;BME280;21130;51.728;8.748;2023-02-08T08:49:51;102665.00;;;3.58;64.83
34925;BME280;21130;51.728;8.748;2023-02-08T08:52:17;102666.75;;;3.79;64.91
34925;BME280;21130;51.728;8.748;2023-02-08T08:54:45;102665.84;;;3.88;62.52
34925;BME280;21130;51.728;8.748;2023-02-08T08:57:12;102675.41;;;4.31;60.66
34925;BME280;21130;51.728;8.748;2023-02-08T08:59:38;102673.06;;;4.64;57.78
34925;BME280;21130;51.728;8.748;2023-02-08T09:02:05;102673.34;;;5.16;55.29
34925;BME280;21130;51.728;8.748;2023-02-08T09:04:32;102662.47;;;5.68;54.21
34925;BME280;21130;51.728;8.748;2023-02-08T09:06:58;102662.59;;;6.37;51.48
34925;BME280;21130;51.728;8.748;2023-02-08T09:09:25;102659.44;;;7.08;48.89
34925;BME280;21130;51.728;8.748;2023-02-08T09:11:53;102671.94;;;7.53;47.74
34925;BME280;21130;51.728;8.748;2023-02-08T09:14:19;102661.25;;;7.50;46.25
34925;BME280;21130;51.728;8.748;2023-02-08T09:16:46;102657.44;;;7.76;45.47
34925;BME280;21130;51.728;8.748;2023-02-08T09:19:13;102656.03;;;7.72;44.62
34925;BME280;21130;51.728;8.748;2023-02-08T09:21:40;102664.44;;;8.36;44.54
34925;BME280;21130;51.728;8.748;2023-02-08T09:24:07;102663.56;;;8.27;43.02
34925;BME280;21130;51.728;8.748;2023-02-08T09:26:34;102660.31;;;8.79;42.62
34925;BME280;21130;51.728;8.748;2023-02-08T09:29:02;102666.72;;;9.11;42.19
34925;BME280;21130;51.728;8.748;2023-02-08T09:31:31;102673.66;;;9.38;40.39
34925;BME280;21130;51.728;8.748;2023-02-08T09:34:00;102669.22;;;9.90;39.72
34925;BME280;21130;51.728;8.748;2023-02-08T09:36:28;102665.47;;;9.83;39.32
34925;BME280;21130;51.728;8.748;2023-02-08T09:38:57;102661.16;;;9.80;39.31
34925;BME280;21130;51.728;8.748;2023-02-08T09:41:34;102664.16;;;9.79;39.07
34925;BME280;21130;51.728;8.748;2023-02-08T09:44:16;102657.81;;;10.97;38.26
34925;BME280;21130;51.728;8.748;2023-02-08T09:46:51;102661.31;;;10.69;36.11
34925;BME280;21130;51.728;8.748;2023-02-08T09:49:25;102664.66;;;10.65;36.21
34925;BME280;21130;51.728;8.748;2023-02-08T09:51:56;102656.44;;;11.08;35.61
34925;BME280;21130;51.728;8.748;2023-02-08T09:54:27;102645.34;;;10.93;34.40
34925;BME280;21130;51.728;8.748;2023-02-08T09:56:56;102654.50;;;10.72;33.06
34925;BME280;21130;51.728;8.748;2023-02-08T09:59:28;102655.38;;;10.43;31.96
34925;BME280;21130;51.728;8.748;2023-02-08T10:02:00;102644.16;;;11.17;31.43
34925;BME280;21130;51.728;8.748;2023-02-08T10:04:34;102649.06;;;11.58;31.94
34925;BME280;21130;51.728;8.748;2023-02-08T10:07:02;102647.88;;;12.93;29.83
34925;BME280;21130;51.728;8.748;2023-02-08T10:09:29;102649.41;;;12.54;30.97
34925;BME280;21130;51.728;8.748;2023-02-08T10:12:05;102642.72;;;12.48;31.29
34925;BME280;21130;51.728;8.748;2023-02-08T10:14:51;102638.03;;;12.97;30.53
34925;BME280;21130;51.728;8.748;2023-02-08T10:20:26;102658.56;;;13.44;28.26
34925;BME280;21130;51.728;8.748;2023-02-08T10:23:01;102645.34;;;13.11;29.31
34925;BME280;21130;51.728;8.748;2023-02-08T10:25:45;102634.69;;;12.67;28.06
34925;BME280;21130;51.728;8.748;2023-02-08T10:28:34;102634.72;;;12.32;29.61
34925;BME280;21130;51.728;8.748;2023-02-08T10:31:13;102636.66;;;11.82;32.04
34925;BME280;21130;51.728;8.748;2023-02-08T10:33:49;102632.81;;;12.74;30.55
34925;BME280;21130;51.728;8.748;2023-02-08T10:36:21;102634.75;;;13.35;30.31
34925;BME280;21130;51.728;8.748;2023-02-08T10:38:52;102635.19;;;13.45;31.12
34925;BME280;21130;51.728;8.748;2023-02-08T10:41:23;102631.41;;;11.94;26.85
34925;BME280;21130;51.728;8.748;2023-02-08T10:43:57;102632.81;;;11.83;28.71
34925;BME280;21130;51.728;8.748;2023-02-08T10:51:40;102619.47;;;10.56;28.64
34925;BME280;21130;51.728;8.748;2023-02-08T10:54:09;102616.16;;;11.40;31.12
34925;BME280;21130;51.728;8.748;2023-02-08T10:56:42;102615.28;;;10.96;29.31
34925;BME280;21130;51.728;8.748;2023-02-08T10:59:16;102613.00;;;10.85;27.11
34925;BME280;21130;51.728;8.748;2023-02-08T11:01:45;102608.63;;;10.02;26.70
34925;BME280;21130;51.728;8.748;2023-02-08T11:04:13;102602.81;;;10.11;27.17
34925;BME280;21130;51.728;8.748;2023-02-08T11:06:42;102602.53;;;10.21;28.95
34925;BME280;21130;51.728;8.748;2023-02-08T11:09:20;102598.59;;;10.96;28.76
34925;BME280;21130;51.728;8.748;2023-02-08T11:11:48;102588.75;;;10.94;28.03
34925;BME280;21130;51.728;8.748;2023-02-08T11:14:18;102589.22;;;10.97;31.70
34925;BME280;21130;51.728;8.748;2023-02-08T11:16:49;102597.78;;;11.39;31.11
34925;BME280;21130;51.728;8.748;2023-02-08T11:19:22;102599.69;;;12.16;30.37
34925;BME280;21130;51.728;8.748;2023-02-08T11:21:51;102591.63;;;12.69;30.26
34925;BME280;21130;51.728;8.748;2023-02-08T11:24:26;102579.88;;;12.74;29.96
34925;BME280;21130;51.728;8.748;2023-02-08T11:26:53;102582.41;;;11.93;28.63
34925;BME280;21130;51.728;8.748;2023-02-08T11:29:22;102572.50;;;11.34;30.65
34925;BME280;21130;51.728;8.748;2023-02-08T11:32:01;102582.56;;;11.63;28.87
34925;BME280;21130;51.728;8.748;2023-02-08T11:34:30;102567.53;;;11.29;30.78
34925;BME280;21130;51.728;8.748;2023-02-08T11:37:01;102567.22;;;11.45;30.04
34925;BME280;21130;51.728;8.748;2023-02-08T11:39:31;102551.38;;;11.67;30.33
34925;BME280;21130;51.728;8.748;2023-02-08T11:42:01;102560.06;;;11.86;29.77
34925;BME280;21130;51.728;8.748;2023-02-08T11:44:31;102555.50;;;11.78;28.65
34925;BME280;21130;51.728;8.748;2023-02-08T11:47:00;102557.69;;;12.11;28.62
34925;BME280;21130;51.728;8.748;2023-02-08T11:49:34;102562.22;;;12.12;29.02
34925;BME280;21130;51.728;8.748;2023-02-08T11:52:05;102562.84;;;12.56;29.08
34925;BME280;21130;51.728;8.748;2023-02-08T11:54:35;102554.31;;;12.64;30.09
34925;BME280;21130;51.728;8.748;2023-02-08T11:57:11;102551.63;;;12.01;29.84
34925;BME280;21130;51.728;8.748;2023-02-08T11:59:38;102544.03;;;11.10;27.25
34925;BME280;21130;51.728;8.748;2023-02-08T12:02:26;102547.00;;;10.51;25.85
34925;BME280;21130;51.728;8.748;2023-02-08T12:04:53;102544.44;;;10.20;25.85
34925;BME280;21130;51.728;8.748;2023-02-08T12:07:24;102552.56;;;10.06;26.74
34925;BME280;21130;51.728;8.748;2023-02-08T12:10:13;102549.47;;;9.57;28.27
34925;BME280;21130;51.728;8.748;2023-02-08T12:12:52;102545.41;;;9.44;26.85
34925;BME280;21130;51.728;8.748;2023-02-08T12:15:29;102541.47;;;9.01;28.75
34925;BME280;21130;51.728;8.748;2023-02-08T12:18:20;102535.72;;;9.25;30.18
34925;BME280;21130;51.728;8.748;2023-02-08T12:20:53;102537.16;;;8.98;31.04
34925;BME280;21130;51.728;8.748;2023-02-08T12:23:40;102537.31;;;9.20;31.36
34925;BME280;21130;51.728;8.748;2023-02-08T12:26:17;102538.25;;;9.12;32.51
34925;BME280;21130;51.728;8.748;2023-02-08T12:28:56;102526.81;;;9.83;33.37
34925;BME280;21130;51.728;8.748;2023-02-08T12:31:38;102530.78;;;10.03;32.12
34925;BME280;21130;51.728;8.748;2023-02-08T12:34:13;102526.50;;;9.63;30.07
34925;BME280;21130;51.728;8.748;2023-02-08T12:36:57;102513.31;;;8.89;29.40
34925;BME280;21130;51.728;8.748;2023-02-08T12:39:47;102515.50;;;8.08;31.71
34925;BME280;21130;51.728;8.748;2023-02-08T12:42:47;102515.81;;;8.13;31.76
34925;BME280;21130;51.728;8.748;2023-02-08T12:45:33;102519.47;;;8.45;31.18
34925;BME280;21130;51.728;8.748;2023-02-08T12:48:10;102509.00;;;8.63;32.37
34925;BME280;21130;51.728;8.748;2023-02-08T12:50:44;102502.47;;;8.56;31.39
34925;BME280;21130;51.728;8.748;2023-02-08T12:53:19;102498.84;;;8.56;32.67
34925;BME280;21130;51.728;8.748;2023-02-08T12:55:52;102498.69;;;8.80;32.44
34925;BME280;21130;51.728;8.748;2023-02-08T12:58:25;102486.00;;;9.09;33.01
34925;BME280;21130;51.728;8.748;2023-02-08T13:00:56;102493.41;;;9.32;31.54
34925;BME280;21130;51.728;8.748;2023-02-08T13:03:33;102493.84;;;9.20;32.82
34925;BME280;21130;51.728;8.748;2023-02-08T13:06:03;102491.66;;;9.16;33.06
34925;BME280;21130;51.728;8.748;2023-02-08T13:08:35;102485.38;;;9.37;32.22
34925;BME280;21130;51.728;8.748;2023-02-08T13:11:10;102491.50;;;9.32;32.54
34925;BME280;21130;51.728;8.748;2023-02-08T13:13:41;102483.78;;;9.57;32.05
34925;BME280;21130;51.728;8.748;2023-02-08T13:16:12;102479.25;;;9.26;32.18